createdAt,value
2022-10-06T00:01:22.274Z,3.60
2022-10-06T00:06:22.595Z,7.03
2022-10-06T00:11:21.506Z,6.07
2022-10-06T00:16:23.640Z,5.60
2022-10-06T00:21:24.780Z,2.47
2022-10-06T00:26:24.349Z,3.80
2022-10-06T00:31:24.129Z,3.47
2022-10-06T00:36:24.504Z,3.50
2022-10-06T00:41:23.367Z,4.43
2022-10-06T00:46:33.872Z,6.57
2022-10-06T00:51:35.280Z,4.93
2022-10-06T00:56:34.258Z,5.10
2022-10-06T01:01:34.077Z,5.13
2022-10-06T01:06:45.360Z,4.28
2022-10-06T01:11:45.189Z,4.95
2022-10-06T01:16:47.913Z,3.63
2022-10-06T01:21:50.846Z,4.68
2022-10-06T01:31:50.790Z,5.28
2022-10-06T01:36:49.954Z,4.32
2022-10-06T01:41:50.293Z,4.25
2022-10-06T01:46:50.049Z,3.72
2022-10-06T01:51:49.075Z,4.35
2022-10-06T01:56:47.990Z,3.50
2022-10-06T02:01:48.156Z,5.93
2022-10-06T02:06:50.714Z,3.22
2022-10-06T02:11:49.933Z,2.95
2022-10-06T02:17:00.472Z,7.50
2022-10-06T02:21:59.525Z,5.32
2022-10-06T02:26:58.442Z,4.45
2022-10-06T02:31:57.442Z,3.78
2022-10-06T02:36:58.298Z,4.13
2022-10-06T02:41:57.325Z,4.15
2022-10-06T02:46:56.526Z,5.18
2022-10-06T02:51:55.428Z,6.15
2022-10-06T02:56:55.726Z,6.80
2022-10-06T03:01:54.979Z,6.32
2022-10-06T03:06:54.216Z,4.97
2022-10-06T03:12:00.634Z,4.95
2022-10-06T03:17:06.476Z,5.07
2022-10-06T03:22:06.084Z,3.70
2022-10-06T03:27:13.604Z,3.08
2022-10-06T03:32:12.411Z,5.05
2022-10-06T03:37:11.306Z,5.70
2022-10-06T03:42:10.875Z,9.07
2022-10-06T03:47:16.098Z,7.47
2022-10-06T03:52:16.216Z,5.00
2022-10-06T03:57:15.173Z,5.50
2022-10-06T04:02:15.532Z,4.32
2022-10-06T04:07:15.338Z,9.20
2022-10-06T04:12:14.863Z,4.57
2022-10-06T04:17:16.774Z,5.57
2022-10-06T04:22:15.771Z,9.98
2022-10-06T04:27:30.080Z,10.27
2022-10-06T04:32:35.573Z,7.07
2022-10-06T04:37:35.094Z,11.35
2022-10-06T04:42:35.565Z,8.85
2022-10-06T04:47:39.231Z,11.20
2022-10-06T04:52:38.143Z,8.40
2022-10-06T04:57:36.987Z,10.60
2022-10-06T05:02:36.392Z,16.63
2022-10-06T05:07:36.719Z,14.07
2022-10-06T05:12:37.556Z,11.18
2022-10-06T05:17:36.438Z,14.90
2022-10-06T05:22:36.716Z,14.27
2022-10-06T05:27:35.586Z,18.10
2022-10-06T05:32:36.266Z,10.70
2022-10-06T05:37:37.662Z,12.00
2022-10-06T05:42:36.567Z,10.98
2022-10-06T05:47:35.376Z,11.48
2022-10-06T05:52:34.772Z,10.85
2022-10-06T05:57:35.077Z,8.13
2022-10-06T06:02:34.079Z,17.15
2022-10-06T06:07:32.922Z,9.02
2022-10-06T06:12:31.871Z,16.92
2022-10-06T06:18:01.722Z,9.05
2022-10-06T06:23:00.689Z,8.13
2022-10-06T06:28:00.768Z,14.63
2022-10-06T06:33:01.088Z,11.80
2022-10-06T06:38:00.599Z,15.02
2022-10-06T06:43:03.070Z,9.73
2022-10-06T06:48:22.050Z,4.78
2022-10-06T06:53:20.879Z,12.20
2022-10-06T06:58:21.864Z,4.80
2022-10-06T07:03:52.174Z,9.27
2022-10-06T07:08:44.029Z,7.72
2022-10-06T07:13:44.165Z,6.82
2022-10-06T07:19:01.702Z,6.10
2022-10-06T07:24:18.354Z,6.50
2022-10-06T07:29:17.391Z,14.43
2022-10-06T07:34:17.649Z,9.13
2022-10-06T07:39:16.930Z,6.90
2022-10-06T07:44:17.018Z,5.72
2022-10-06T07:49:19.438Z,7.63
2022-10-06T07:54:24.022Z,6.57
2022-10-06T08:00:02.812Z,5.40
2022-10-06T08:05:11.881Z,8.00
2022-10-06T08:10:10.885Z,6.53
2022-10-06T08:15:13.079Z,5.57
2022-10-06T08:20:14.279Z,4.30
2022-10-06T08:25:13.190Z,5.72
2022-10-06T08:30:13.501Z,5.82
2022-10-06T08:35:14.361Z,4.30
2022-10-06T08:40:16.036Z,6.05
2022-10-06T08:45:19.292Z,7.35
2022-10-06T08:50:21.430Z,4.95
2022-10-06T08:55:38.912Z,4.32
2022-10-06T09:00:39.037Z,6.57
2022-10-06T09:05:41.006Z,7.18
2022-10-06T09:10:45.654Z,5.10
2022-10-06T09:15:51.054Z,4.68
2022-10-06T09:20:57.188Z,5.93
2022-10-06T09:25:58.366Z,7.47
2022-10-06T09:30:57.740Z,5.97
2022-10-06T09:36:12.614Z,8.35
2022-10-06T09:41:13.584Z,8.13
2022-10-06T09:46:28.006Z,15.95
2022-10-06T09:51:29.190Z,4.18
2022-10-06T09:56:27.946Z,1.85
2022-10-06T10:01:29.334Z,2.83
2022-10-06T10:06:31.771Z,7.28
2022-10-06T10:11:47.971Z,3.60
2022-10-06T10:16:53.233Z,4.53
2022-10-06T10:21:56.770Z,6.65
2022-10-06T10:27:01.467Z,9.50
2022-10-06T10:32:12.301Z,3.47
2022-10-06T10:37:15.468Z,2.17
2022-10-06T10:42:22.072Z,3.83
2022-10-06T10:47:27.904Z,1.98
2022-10-06T10:52:33.569Z,4.30
2022-10-06T10:57:38.048Z,2.45
2022-10-06T11:02:38.440Z,2.75
2022-10-06T11:07:45.676Z,4.18
2022-10-06T11:13:11.891Z,1.90
2022-10-06T11:18:25.875Z,2.50
2022-10-06T11:23:45.528Z,2.90
2022-10-06T11:28:47.855Z,2.30
2022-10-06T11:33:50.845Z,4.30
2022-10-06T11:38:57.705Z,4.13
2022-10-06T11:44:03.640Z,4.68
2022-10-06T11:49:48.542Z,4.15
2022-10-06T11:54:51.264Z,4.28
2022-10-06T11:59:50.739Z,3.90
2022-10-06T12:05:54.928Z,3.50
2022-10-06T12:10:50.030Z,14.15
2022-10-06T12:21:43.246Z,3.25
2022-10-06T12:26:56.118Z,5.13
2022-10-06T12:32:02.735Z,5.18
2022-10-06T12:37:32.332Z,2.67
2022-10-06T12:42:32.677Z,1.85
2022-10-06T12:47:38.324Z,3.42
2022-10-06T12:52:48.115Z,3.47
2022-10-06T12:57:50.794Z,7.57
2022-10-06T13:02:49.799Z,4.15
2022-10-06T13:08:07.218Z,9.45
2022-10-06T13:13:23.262Z,3.80
2022-10-06T13:18:24.419Z,5.03
2022-10-06T13:23:26.766Z,6.10
2022-10-06T13:28:45.610Z,4.78
2022-10-06T13:33:46.762Z,3.58
2022-10-06T13:38:46.735Z,4.72
2022-10-06T13:49:12.649Z,2.45
2022-10-06T13:54:25.349Z,3.80
2022-10-06T13:59:32.500Z,4.45
2022-10-06T14:04:34.646Z,5.55
2022-10-06T14:09:36.175Z,3.45
2022-10-06T14:14:36.400Z,4.05
2022-10-06T14:24:37.405Z,2.30
2022-10-06T14:29:38.109Z,7.82
2022-10-06T14:34:37.271Z,3.42
2022-10-06T14:39:35.936Z,8.05
2022-10-06T14:44:34.547Z,16.80
2022-10-06T14:49:34.631Z,44.85
2022-10-06T14:54:34.297Z,79.47
2022-10-06T14:59:33.116Z,41.73
2022-10-06T15:04:31.825Z,33.33
2022-10-06T15:09:33.237Z,22.95
2022-10-06T15:14:32.306Z,23.98
2022-10-06T15:19:31.467Z,23.52
2022-10-06T15:24:31.858Z,18.60
2022-10-06T15:29:30.731Z,18.88
2022-10-06T15:34:31.774Z,21.23
2022-10-06T15:39:35.346Z,8.57
2022-10-06T15:44:34.999Z,7.63
2022-10-06T15:49:38.425Z,8.18
2022-10-06T15:54:40.345Z,7.53
2022-10-06T15:59:40.217Z,16.85
2022-10-06T16:04:55.720Z,26.30
2022-10-06T16:09:55.945Z,21.10
2022-10-06T16:14:54.632Z,24.02
2022-10-06T16:19:56.783Z,20.27
2022-10-06T16:24:57.052Z,29.30
2022-10-06T16:29:55.756Z,30.48
2022-10-06T16:34:54.463Z,26.08
2022-10-06T16:39:53.112Z,22.23
2022-10-06T16:44:53.373Z,22.30
2022-10-06T16:49:52.118Z,26.73
2022-10-06T16:54:51.043Z,26.13
2022-10-06T16:59:49.741Z,30.98
2022-10-06T17:04:49.956Z,28.27
2022-10-06T17:10:08.460Z,27.02
2022-10-06T17:15:08.394Z,31.63
2022-10-06T17:20:09.381Z,29.58
2022-10-06T17:25:08.240Z,32.10
2022-10-06T17:30:08.725Z,17.90
2022-10-06T17:35:09.585Z,25.95
2022-10-06T17:40:09.159Z,24.98
2022-10-06T17:45:08.480Z,25.02
2022-10-06T17:50:09.734Z,36.13
2022-10-06T17:55:10.654Z,22.07
2022-10-06T18:00:12.270Z,28.52
2022-10-06T18:05:13.861Z,25.95
2022-10-06T18:10:30.851Z,22.33
2022-10-06T18:15:30.973Z,25.50
2022-10-06T18:20:45.599Z,25.73
2022-10-06T18:25:46.073Z,21.90
2022-10-06T18:30:51.406Z,28.88
2022-10-06T18:36:15.268Z,26.50
2022-10-06T18:41:17.170Z,34.55
2022-10-06T18:46:34.870Z,35.43
2022-10-06T18:51:37.636Z,32.00
2022-10-06T18:56:38.247Z,37.47
2022-10-06T19:01:39.674Z,26.92
2022-10-06T19:06:42.578Z,21.83
2022-10-06T19:11:48.532Z,19.60
2022-10-06T19:16:48.356Z,15.13
2022-10-06T19:21:50.255Z,15.25
2022-10-06T19:26:52.098Z,13.10
2022-10-06T19:31:53.056Z,17.10
2022-10-06T19:36:54.035Z,16.52
2022-10-06T19:42:10.372Z,15.73
2022-10-06T19:47:11.281Z,15.23
2022-10-06T19:52:13.296Z,15.15
2022-10-06T19:57:12.619Z,14.23
2022-10-06T20:02:12.902Z,10.75
2022-10-06T20:07:13.019Z,12.27
2022-10-06T20:12:12.344Z,15.98
2022-10-06T20:17:11.180Z,11.60
2022-10-06T20:22:09.886Z,12.32
2022-10-06T20:27:10.331Z,11.73
2022-10-06T20:32:09.035Z,17.55
2022-10-06T20:37:07.867Z,17.73
2022-10-06T20:42:12.191Z,15.25
2022-10-06T20:47:16.701Z,13.50
2022-10-06T20:52:17.790Z,11.80
2022-10-06T20:57:16.567Z,11.27
2022-10-06T21:02:16.738Z,9.13
2022-10-06T21:07:15.501Z,10.70
2022-10-06T21:12:16.063Z,9.13
2022-10-06T21:17:16.113Z,12.48
2022-10-06T21:22:14.768Z,17.30
2022-10-06T21:27:13.477Z,22.63
2022-10-06T21:32:12.272Z,31.00
2022-10-06T21:37:13.727Z,39.03
2022-10-06T21:42:12.494Z,34.08
2022-10-06T21:47:11.307Z,26.10
2022-10-06T21:52:10.198Z,10.85
2022-10-06T21:57:10.162Z,9.73
2022-10-06T22:02:08.973Z,10.82
2022-10-06T22:07:07.749Z,11.15
2022-10-06T22:12:06.572Z,14.95
2022-10-06T22:17:06.609Z,7.78
2022-10-06T22:22:05.350Z,6.68
2022-10-06T22:27:04.107Z,9.68
2022-10-06T22:32:02.818Z,6.03
2022-10-06T22:37:03.007Z,6.53
2022-10-06T22:42:02.540Z,10.80
2022-10-06T22:47:01.370Z,7.13
2022-10-06T22:52:00.138Z,8.73
2022-10-06T22:57:00.231Z,7.68
2022-10-06T23:01:59.412Z,8.05
2022-10-06T23:06:58.040Z,8.70
2022-10-06T23:11:56.678Z,6.30
2022-10-06T23:16:56.934Z,7.25
2022-10-06T23:21:55.681Z,7.00
2022-10-06T23:26:58.018Z,9.00
2022-10-06T23:31:58.230Z,7.15
2022-10-06T23:36:56.973Z,5.45
2022-10-06T23:41:55.669Z,5.90
2022-10-06T23:46:54.710Z,8.88
2022-10-06T23:51:54.773Z,8.02
2022-10-06T23:56:53.847Z,10.07
